sensor_id;sensor_type;location;lat;lon;timestamp;pressure;altitude;pressure_sealevel;temperature;humidity
6433;BME280;3249;42.690;23.260;2023-05-25T00:01:37;94249.28;;;14.15;100.00
6433;BME280;3249;42.690;23.260;2023-05-25T00:04:10;94220.69;;;13.88;100.00
6433;BME280;3249;42.690;23.260;2023-05-25T00:06:42;94221.91;;;13.81;100.00
6433;BME280;3249;42.690;23.260;2023-05-25T00:09:12;94247.41;;;13.28;100.00
6433;BME280;3249;42.690;23.260;2023-05-25T00:11:41;94253.91;;;13.14;100.00
6433;BME280;3249;42.690;23.260;2023-05-25T00:14:12;94252.78;;;13.10;100.00
6433;BME280;3249;42.690;23.260;2023-05-25T00:16:41;94253.22;;;13.35;100.00
6433;BME280;3249;42.690;23.260;2023-05-25T00:19:13;94252.38;;;13.46;100.00
6433;BME280;3249;42.690;23.260;2023-05-25T00:21:43;94250.56;;;13.63;100.00
6433;BME280;3249;42.690;23.260;2023-05-25T00:24:13;94254.56;;;13.70;100.00
6433;BME280;3249;42.690;23.260;2023-05-25T00:26:43;94251.75;;;13.72;100.00
6433;BME280;3249;42.690;23.260;2023-05-25T00:29:15;94253.75;;;13.37;100.00
6433;BME280;3249;42.690;23.260;2023-05-25T00:31:43;94257.31;;;13.03;100.00
6433;BME280;3249;42.690;23.260;2023-05-25T00:34:14;94252.00;;;13.09;100.00
6433;BME280;3249;42.690;23.260;2023-05-25T00:36:43;94253.31;;;13.12;100.00
6433;BME280;3249;42.690;23.260;2023-05-25T00:39:13;94243.19;;;13.22;100.00
6433;BME280;3249;42.690;23.260;2023-05-25T00:41:43;94239.78;;;12.93;100.00
6433;BME280;3249;42.690;23.260;2023-05-25T00:44:15;94260.72;;;13.20;100.00
6433;BME280;3249;42.690;23.260;2023-05-25T00:46:47;94262.09;;;13.11;100.00
6433;BME280;3249;42.690;23.260;2023-05-25T00:49:18;94253.09;;;13.13;100.00
6433;BME280;3249;42.690;23.260;2023-05-25T00:51:51;94253.97;;;13.19;100.00
6433;BME280;3249;42.690;23.260;2023-05-25T00:54:20;94258.09;;;12.92;100.00
6433;BME280;3249;42.690;23.260;2023-05-25T00:56:50;94261.03;;;12.84;100.00
6433;BME280;3249;42.690;23.260;2023-05-25T00:59:27;94260.69;;;13.03;100.00
6433;BME280;3249;42.690;23.260;2023-05-25T01:02:02;94260.44;;;12.93;100.00
6433;BME280;3249;42.690;23.260;2023-05-25T01:04:35;94224.44;;;12.47;100.00
6433;BME280;3249;42.690;23.260;2023-05-25T01:07:07;94261.59;;;12.46;100.00
6433;BME280;3249;42.690;23.260;2023-05-25T01:09:38;94261.75;;;12.28;100.00
6433;BME280;3249;42.690;23.260;2023-05-25T01:12:10;94271.25;;;12.51;100.00
6433;BME280;3249;42.690;23.260;2023-05-25T01:14:42;94255.75;;;12.51;100.00
6433;BME280;3249;42.690;23.260;2023-05-25T01:17:13;94267.75;;;12.57;100.00
6433;BME280;3249;42.690;23.260;2023-05-25T01:19:45;94249.34;;;12.53;100.00
6433;BME280;3249;42.690;23.260;2023-05-25T01:22:20;94265.25;;;12.73;100.00
6433;BME280;3249;42.690;23.260;2023-05-25T01:24:55;94250.41;;;12.80;100.00
6433;BME280;3249;42.690;23.260;2023-05-25T01:27:30;94250.84;;;12.77;100.00
6433;BME280;3249;42.690;23.260;2023-05-25T01:30:01;94240.41;;;12.44;100.00
6433;BME280;3249;42.690;23.260;2023-05-25T01:32:31;94249.06;;;12.27;100.00
6433;BME280;3249;42.690;23.260;2023-05-25T01:35:03;94246.69;;;12.25;100.00
6433;BME280;3249;42.690;23.260;2023-05-25T01:37:37;94236.28;;;12.09;100.00
6433;BME280;3249;42.690;23.260;2023-05-25T01:40:08;94242.91;;;12.16;100.00
6433;BME280;3249;42.690;23.260;2023-05-25T01:42:38;94238.50;;;12.28;100.00
6433;BME280;3249;42.690;23.260;2023-05-25T01:45:08;94228.97;;;12.06;100.00
6433;BME280;3249;42.690;23.260;2023-05-25T01:47:43;94229.31;;;12.32;100.00
6433;BME280;3249;42.690;23.260;2023-05-25T01:50:20;94232.88;;;12.43;100.00
6433;BME280;3249;42.690;23.260;2023-05-25T01:52:56;94227.50;;;12.33;100.00
6433;BME280;3249;42.690;23.260;2023-05-25T01:55:30;94233.31;;;12.40;100.00
6433;BME280;3249;42.690;23.260;2023-05-25T01:58:01;94214.38;;;12.34;100.00
6433;BME280;3249;42.690;23.260;2023-05-25T02:00:31;94232.81;;;12.66;100.00
6433;BME280;3249;42.690;23.260;2023-05-25T02:03:01;94205.31;;;12.60;100.00
6433;BME280;3249;42.690;23.260;2023-05-25T02:05:31;94232.47;;;12.62;100.00
6433;BME280;3249;42.690;23.260;2023-05-25T02:08:02;94240.66;;;12.71;100.00
6433;BME280;3249;42.690;23.260;2023-05-25T02:10:32;94241.84;;;12.80;100.00
6433;BME280;3249;42.690;23.260;2023-05-25T02:13:01;94233.09;;;12.81;100.00
6433;BME280;3249;42.690;23.260;2023-05-25T02:15:31;94258.66;;;12.94;100.00
6433;BME280;3249;42.690;23.260;2023-05-25T02:18:01;94248.56;;;12.92;100.00
6433;BME280;3249;42.690;23.260;2023-05-25T02:20:30;94243.53;;;12.86;100.00
6433;BME280;3249;42.690;23.260;2023-05-25T02:23:02;94260.03;;;12.85;100.00
6433;BME280;3249;42.690;23.260;2023-05-25T02:25:31;94267.50;;;12.58;100.00
6433;BME280;3249;42.690;23.260;2023-05-25T02:28:00;94266.94;;;12.68;100.00
6433;BME280;3249;42.690;23.260;2023-05-25T02:30:29;94264.91;;;12.70;100.00
6433;BME280;3249;42.690;23.260;2023-05-25T02:32:59;94258.66;;;12.66;100.00
6433;BME280;3249;42.690;23.260;2023-05-25T02:35:27;94268.97;;;12.54;100.00
6433;BME280;3249;42.690;23.260;2023-05-25T02:37:58;94268.47;;;12.29;100.00
6433;BME280;3249;42.690;23.260;2023-05-25T02:40:29;94264.97;;;12.47;100.00
6433;BME280;3249;42.690;23.260;2023-05-25T02:42:58;94276.06;;;12.47;100.00
6433;BME280;3249;42.690;23.260;2023-05-25T02:45:27;94284.81;;;12.46;100.00
6433;BME280;3249;42.690;23.260;2023-05-25T02:47:57;94285.97;;;12.39;100.00
6433;BME280;3249;42.690;23.260;2023-05-25T02:50:26;94286.19;;;12.37;100.00
6433;BME280;3249;42.690;23.260;2023-05-25T02:52:57;94292.25;;;12.31;100.00
6433;BME280;3249;42.690;23.260;2023-05-25T02:55:29;94287.44;;;12.35;100.00
6433;BME280;3249;42.690;23.260;2023-05-25T02:57:58;94284.97;;;12.05;100.00
6433;BME280;3249;42.690;23.260;2023-05-25T03:00:54;94287.31;;;11.95;100.00
6433;BME280;3249;42.690;23.260;2023-05-25T03:03:25;94291.91;;;11.70;100.00
6433;BME280;3249;42.690;23.260;2023-05-25T03:05:55;94280.47;;;11.78;100.00
6433;BME280;3249;42.690;23.260;2023-05-25T03:08:23;94260.06;;;11.65;100.00
6433;BME280;3249;42.690;23.260;2023-05-25T03:10:56;94300.91;;;11.91;100.00
6433;BME280;3249;42.690;23.260;2023-05-25T03:13:25;94295.50;;;12.04;100.00
6433;BME280;3249;42.690;23.260;2023-05-25T03:15:54;94291.94;;;12.16;100.00
6433;BME280;3249;42.690;23.260;2023-05-25T03:18:24;94302.25;;;12.28;100.00
6433;BME280;3249;42.690;23.260;2023-05-25T03:20:53;94297.31;;;12.38;100.00
6433;BME280;3249;42.690;23.260;2023-05-25T03:23:23;94298.88;;;12.16;100.00
6433;BME280;3249;42.690;23.260;2023-05-25T03:25:58;94297.09;;;12.05;100.00
6433;BME280;3249;42.690;23.260;2023-05-25T03:28:28;94299.41;;;12.41;100.00
6433;BME280;3249;42.690;23.260;2023-05-25T03:30:57;94300.53;;;12.56;100.00
6433;BME280;3249;42.690;23.260;2023-05-25T03:33:26;94302.28;;;12.79;100.00
6433;BME280;3249;42.690;23.260;2023-05-25T03:35:55;94307.41;;;12.90;100.00
6433;BME280;3249;42.690;23.260;2023-05-25T03:38:24;94307.31;;;12.85;100.00
6433;BME280;3249;42.690;23.260;2023-05-25T03:40:53;94314.38;;;13.01;100.00
6433;BME280;3249;42.690;23.260;2023-05-25T03:43:25;94320.59;;;13.45;100.00
6433;BME280;3249;42.690;23.260;2023-05-25T03:45:54;94313.41;;;13.47;100.00
6433;BME280;3249;42.690;23.260;2023-05-25T03:48:22;94316.97;;;13.74;100.00
6433;BME280;3249;42.690;23.260;2023-05-25T03:50:52;94312.97;;;14.16;100.00
6433;BME280;3249;42.690;23.260;2023-05-25T03:53:21;94321.75;;;14.48;100.00
6433;BME280;3249;42.690;23.260;2023-05-25T03:55:50;94335.81;;;14.74;100.00
6433;BME280;3249;42.690;23.260;2023-05-25T03:58:19;94335.13;;;15.00;100.00
6433;BME280;3249;42.690;23.260;2023-05-25T04:00:51;94337.34;;;15.34;100.00
6433;BME280;3249;42.690;23.260;2023-05-25T04:03:21;94332.00;;;15.67;100.00
6433;BME280;3249;42.690;23.260;2023-05-25T04:05:50;94334.91;;;16.02;100.00
6433;BME280;3249;42.690;23.260;2023-05-25T04:08:20;94340.91;;;16.39;100.00
6433;BME280;3249;42.690;23.260;2023-05-25T04:10:49;94337.47;;;16.65;100.00
6433;BME280;3249;42.690;23.260;2023-05-25T04:13:18;94353.06;;;16.70;100.00
6433;BME280;3249;42.690;23.260;2023-05-25T04:15:51;94352.91;;;16.45;100.00
6433;BME280;3249;42.690;23.260;2023-05-25T04:18:24;94357.19;;;15.98;100.00
6433;BME280;3249;42.690;23.260;2023-05-25T04:20:53;94358.94;;;15.61;100.00
6433;BME280;3249;42.690;23.260;2023-05-25T04:23:23;94351.66;;;15.63;100.00
6433;BME280;3249;42.690;23.260;2023-05-25T04:25:54;94351.34;;;15.81;100.00
6433;BME280;3249;42.690;23.260;2023-05-25T04:28:23;94355.00;;;15.85;100.00
6433;BME280;3249;42.690;23.260;2023-05-25T04:31:02;94361.34;;;15.99;100.00
6433;BME280;3249;42.690;23.260;2023-05-25T04:33:46;94355.50;;;15.56;100.00
6433;BME280;3249;42.690;23.260;2023-05-25T04:36:22;94355.63;;;15.23;100.00
6433;BME280;3249;42.690;23.260;2023-05-25T04:38:51;94362.25;;;15.14;100.00
6433;BME280;3249;42.690;23.260;2023-05-25T04:41:21;94372.63;;;15.57;100.00
6433;BME280;3249;42.690;23.260;2023-05-25T04:43:53;94372.50;;;15.95;100.00
6433;BME280;3249;42.690;23.260;2023-05-25T04:46:25;94376.94;;;15.99;100.00
6433;BME280;3249;42.690;23.260;2023-05-25T04:48:55;94376.63;;;16.22;100.00
6433;BME280;3249;42.690;23.260;2023-05-25T04:51:25;94373.25;;;16.53;100.00
6433;BME280;3249;42.690;23.260;2023-05-25T04:53:53;94375.53;;;16.86;100.00
6433;BME280;3249;42.690;23.260;2023-05-25T04:56:22;94374.09;;;17.10;100.00
6433;BME280;3249;42.690;23.260;2023-05-25T04:58:52;94374.72;;;17.32;100.00
6433;BME280;3249;42.690;23.260;2023-05-25T05:01:20;94377.91;;;17.49;100.00
6433;BME280;3249;42.690;23.260;2023-05-25T05:03:54;94368.56;;;17.53;100.00
6433;BME280;3249;42.690;23.260;2023-05-25T05:06:24;94368.63;;;17.73;100.00
6433;BME280;3249;42.690;23.260;2023-05-25T05:08:54;94373.34;;;17.91;100.00
6433;BME280;3249;42.690;23.260;2023-05-25T05:11:23;94370.50;;;17.98;100.00
6433;BME280;3249;42.690;23.260;2023-05-25T05:13:52;94373.38;;;18.12;100.00
6433;BME280;3249;42.690;23.260;2023-05-25T05:16:28;94368.09;;;17.81;100.00
6433;BME280;3249;42.690;23.260;2023-05-25T05:19:03;94368.97;;;18.12;100.00
6433;BME280;3249;42.690;23.260;2023-05-25T05:21:32;94375.97;;;18.07;100.00
6433;BME280;3249;42.690;23.260;2023-05-25T05:24:04;94373.34;;;17.91;100.00
6433;BME280;3249;42.690;23.260;2023-05-25T05:26:33;94370.41;;;17.58;100.00
6433;BME280;3249;42.690;23.260;2023-05-25T05:29:04;94371.28;;;17.17;100.00
6433;BME280;3249;42.690;23.260;2023-05-25T05:31:35;94377.78;;;17.19;100.00
6433;BME280;3249;42.690;23.260;2023-05-25T05:34:08;94373.41;;;17.30;100.00
6433;BME280;3249;42.690;23.260;2023-05-25T05:36:36;94378.97;;;17.43;100.00
6433;BME280;3249;42.690;23.260;2023-05-25T05:39:05;94383.66;;;17.46;100.00
6433;BME280;3249;42.690;23.260;2023-05-25T05:41:34;94372.13;;;17.32;100.00
6433;BME280;3249;42.690;23.260;2023-05-25T05:44:04;94383.06;;;17.34;100.00
6433;BME280;3249;42.690;23.260;2023-05-25T05:46:33;94379.22;;;17.52;100.00
6433;BME280;3249;42.690;23.260;2023-05-25T05:49:02;94380.34;;;17.14;100.00
6433;BME280;3249;42.690;23.260;2023-05-25T05:51:34;94364.13;;;16.92;100.00
6433;BME280;3249;42.690;23.260;2023-05-25T05:54:04;94383.22;;;17.13;100.00
6433;BME280;3249;42.690;23.260;2023-05-25T05:56:32;94380.56;;;17.59;100.00
6433;BME280;3249;42.690;23.260;2023-05-25T05:59:02;94391.00;;;17.69;100.00
6433;BME280;3249;42.690;23.260;2023-05-25T06:01:31;94390.25;;;17.74;100.00
6433;BME280;3249;42.690;23.260;2023-05-25T06:04:01;94392.66;;;18.16;100.00
6433;BME280;3249;42.690;23.260;2023-05-25T06:06:33;94392.16;;;18.24;100.00
6433;BME280;3249;42.690;23.260;2023-05-25T06:09:03;94401.31;;;18.56;100.00
6433;BME280;3249;42.690;23.260;2023-05-25T06:11:35;94398.41;;;18.58;100.00
6433;BME280;3249;42.690;23.260;2023-05-25T06:14:06;94396.81;;;18.97;100.00
6433;BME280;3249;42.690;23.260;2023-05-25T06:16:36;94401.47;;;19.30;100.00
6433;BME280;3249;42.690;23.260;2023-05-25T06:19:04;94406.34;;;19.51;100.00
6433;BME280;3249;42.690;23.260;2023-05-25T06:21:37;94408.53;;;19.83;100.00
6433;BME280;3249;42.690;23.260;2023-05-25T06:24:06;94402.22;;;19.94;100.00
6433;BME280;3249;42.690;23.260;2023-05-25T06:26:35;94407.09;;;19.52;100.00
6433;BME280;3249;42.690;23.260;2023-05-25T06:29:04;94398.47;;;20.10;100.00
6433;BME280;3249;42.690;23.260;2023-05-25T06:31:33;94405.31;;;20.01;100.00
6433;BME280;3249;42.690;23.260;2023-05-25T06:34:02;94409.47;;;20.02;100.00
6433;BME280;3249;42.690;23.260;2023-05-25T06:36:32;94408.25;;;19.89;100.00
6433;BME280;3249;42.690;23.260;2023-05-25T06:39:04;94416.16;;;19.79;100.00
6433;BME280;3249;42.690;23.260;2023-05-25T06:41:35;94419.59;;;19.60;100.00
6433;BME280;3249;42.690;23.260;2023-05-25T06:44:05;94409.78;;;19.42;100.00
6433;BME280;3249;42.690;23.260;2023-05-25T06:46:45;94406.47;;;18.91;100.00
6433;BME280;3249;42.690;23.260;2023-05-25T06:49:15;94412.94;;;19.24;100.00
6433;BME280;3249;42.690;23.260;2023-05-25T06:51:56;94413.16;;;19.42;100.00
6433;BME280;3249;42.690;23.260;2023-05-25T06:54:28;94407.22;;;19.12;100.00
6433;BME280;3249;42.690;23.260;2023-05-25T06:56:57;94409.31;;;19.10;100.00
6433;BME280;3249;42.690;23.260;2023-05-25T06:59:26;94418.69;;;19.26;100.00
6433;BME280;3249;42.690;23.260;2023-05-25T07:01:56;94413.81;;;19.68;100.00
6433;BME280;3249;42.690;23.260;2023-05-25T07:04:25;94411.91;;;19.25;100.00
6433;BME280;3249;42.690;23.260;2023-05-25T07:06:54;94416.06;;;19.31;100.00
6433;BME280;3249;42.690;23.260;2023-05-25T07:09:22;94402.50;;;19.09;100.00
6433;BME280;3249;42.690;23.260;2023-05-25T07:11:54;94413.94;;;19.43;100.00
6433;BME280;3249;42.690;23.260;2023-05-25T07:14:24;94375.78;;;19.52;100.00
6433;BME280;3249;42.690;23.260;2023-05-25T07:16:52;94410.81;;;19.46;100.00
6433;BME280;3249;42.690;23.260;2023-05-25T07:19:21;94408.16;;;20.09;100.00
6433;BME280;3249;42.690;23.260;2023-05-25T07:21:51;94390.47;;;20.35;100.00
6433;BME280;3249;42.690;23.260;2023-05-25T07:24:20;94413.19;;;20.73;100.00
6433;BME280;3249;42.690;23.260;2023-05-25T07:26:49;94423.34;;;20.46;100.00
6433;BME280;3249;42.690;23.260;2023-05-25T07:29:20;94423.97;;;20.33;100.00
6433;BME280;3249;42.690;23.260;2023-05-25T07:31:49;94428.03;;;20.44;100.00
6433;BME280;3249;42.690;23.260;2023-05-25T07:34:18;94426.88;;;20.60;100.00
6433;BME280;3249;42.690;23.260;2023-05-25T07:36:47;94433.69;;;20.61;100.00
6433;BME280;3249;42.690;23.260;2023-05-25T07:39:17;94432.50;;;20.77;100.00
6433;BME280;3249;42.690;23.260;2023-05-25T07:41:46;94439.47;;;21.20;100.00
6433;BME280;3249;42.690;23.260;2023-05-25T07:44:14;94440.22;;;20.97;100.00
6433;BME280;3249;42.690;23.260;2023-05-25T07:46:46;94431.41;;;20.83;100.00
6433;BME280;3249;42.690;23.260;2023-05-25T07:49:15;94429.97;;;21.00;100.00
6433;BME280;3249;42.690;23.260;2023-05-25T07:51:44;94429.88;;;20.77;99.94
6433;BME280;3249;42.690;23.260;2023-05-25T07:54:14;94436.31;;;20.61;95.68
6433;BME280;3249;42.690;23.260;2023-05-25T07:56:42;94431.59;;;20.58;92.83
6433;BME280;3249;42.690;23.260;2023-05-25T07:59:11;94419.84;;;20.22;98.80
6433;BME280;3249;42.690;23.260;2023-05-25T08:01:40;94418.28;;;20.21;100.00
6433;BME280;3249;42.690;23.260;2023-05-25T08:04:12;94431.19;;;20.46;94.58
6433;BME280;3249;42.690;23.260;2023-05-25T08:06:42;94431.31;;;19.72;100.00
6433;BME280;3249;42.690;23.260;2023-05-25T08:09:11;94439.38;;;19.81;100.00
6433;BME280;3249;42.690;23.260;2023-05-25T08:11:40;94451.97;;;19.74;100.00
6433;BME280;3249;42.690;23.260;2023-05-25T08:14:10;94433.38;;;18.82;100.00
6433;BME280;3249;42.690;23.260;2023-05-25T08:16:39;94455.53;;;18.54;100.00
6433;BME280;3249;42.690;23.260;2023-05-25T08:19:08;94466.13;;;18.17;100.00
6433;BME280;3249;42.690;23.260;2023-05-25T08:21:40;94454.59;;;17.32;100.00
6433;BME280;3249;42.690;23.260;2023-05-25T08:24:09;94456.84;;;17.18;100.00
6433;BME280;3249;42.690;23.260;2023-05-25T08:26:38;94456.72;;;16.98;100.00
6433;BME280;3249;42.690;23.260;2023-05-25T08:29:08;94460.63;;;16.59;100.00
6433;BME280;3249;42.690;23.260;2023-05-25T08:31:37;94463.88;;;16.45;100.00
6433;BME280;3249;42.690;23.260;2023-05-25T08:34:06;94462.44;;;16.32;100.00
6433;BME280;3249;42.690;23.260;2023-05-25T08:36:36;94475.31;;;16.22;100.00
6433;BME280;3249;42.690;23.260;2023-05-25T08:39:07;94467.69;;;16.37;100.00
6433;BME280;3249;42.690;23.260;2023-05-25T08:41:41;94479.34;;;16.35;100.00
6433;BME280;3249;42.690;23.260;2023-05-25T08:44:10;94464.56;;;16.35;100.00
6433;BME280;3249;42.690;23.260;2023-05-25T08:46:41;94466.22;;;16.46;100.00
6433;BME280;3249;42.690;23.260;2023-05-25T08:49:11;94436.50;;;16.37;100.00
6433;BME280;3249;42.690;23.260;2023-05-25T08:51:42;94456.56;;;16.73;100.00
6433;BME280;3249;42.690;23.260;2023-05-25T08:54:17;94473.25;;;16.77;100.00
6433;BME280;3249;42.690;23.260;2023-05-25T08:56:49;94481.38;;;16.54;100.00
6433;BME280;3249;42.690;23.260;2023-05-25T08:59:28;94475.66;;;16.52;100.00
6433;BME280;3249;42.690;23.260;2023-05-25T09:02:07;94491.75;;;16.81;100.00
6433;BME280;3249;42.690;23.260;2023-05-25T09:04:42;94488.97;;;16.92;100.00
6433;BME280;3249;42.690;23.260;2023-05-25T09:07:12;94483.97;;;16.54;100.00
6433;BME280;3249;42.690;23.260;2023-05-25T09:09:44;94499.31;;;16.87;100.00
6433;BME280;3249;42.690;23.260;2023-05-25T09:12:16;94494.13;;;16.87;100.00
6433;BME280;3249;42.690;23.260;2023-05-25T09:14:46;94508.69;;;16.88;100.00
6433;BME280;3249;42.690;23.260;2023-05-25T09:17:16;94470.63;;;16.77;100.00
6433;BME280;3249;42.690;23.260;2023-05-25T09:19:46;94494.28;;;16.76;100.00
6433;BME280;3249;42.690;23.260;2023-05-25T09:22:15;94493.53;;;16.80;100.00
6433;BME280;3249;42.690;23.260;2023-05-25T09:24:47;94498.78;;;16.85;100.00
6433;BME280;3249;42.690;23.260;2023-05-25T09:27:19;94497.69;;;16.76;100.00
6433;BME280;3249;42.690;23.260;2023-05-25T09:29:48;94492.97;;;17.05;100.00
6433;BME280;3249;42.690;23.260;2023-05-25T09:32:19;94498.22;;;17.20;100.00
6433;BME280;3249;42.690;23.260;2023-05-25T09:34:48;94490.53;;;17.35;100.00
6433;BME280;3249;42.690;23.260;2023-05-25T09:37:18;94486.81;;;17.67;100.00
6433;BME280;3249;42.690;23.260;2023-05-25T09:39:50;94467.59;;;17.78;100.00
6433;BME280;3249;42.690;23.260;2023-05-25T09:42:20;94484.38;;;18.13;100.00
6433;BME280;3249;42.690;23.260;2023-05-25T09:44:48;94491.69;;;18.26;100.00
6433;BME280;3249;42.690;23.260;2023-05-25T09:47:17;94483.94;;;18.41;100.00
6433;BME280;3249;42.690;23.260;2023-05-25T09:49:46;94491.25;;;18.44;100.00
6433;BME280;3249;42.690;23.260;2023-05-25T09:52:15;94477.63;;;18.27;100.00
6433;BME280;3249;42.690;23.260;2023-05-25T09:54:44;94478.78;;;17.74;100.00
6433;BME280;3249;42.690;23.260;2023-05-25T09:57:18;94488.03;;;18.17;100.00
6433;BME280;3249;42.690;23.260;2023-05-25T09:59:47;94477.06;;;18.04;100.00
6433;BME280;3249;42.690;23.260;2023-05-25T10:02:16;94467.81;;;17.67;100.00
6433;BME280;3249;42.690;23.260;2023-05-25T10:04:45;94464.88;;;17.53;100.00
6433;BME280;3249;42.690;23.260;2023-05-25T10:07:14;94458.75;;;17.84;100.00
6433;BME280;3249;42.690;23.260;2023-05-25T10:09:45;94442.41;;;18.09;100.00
6433;BME280;3249;42.690;23.260;2023-05-25T10:12:18;94472.72;;;18.50;100.00
6433;BME280;3249;42.690;23.260;2023-05-25T10:14:49;94466.22;;;18.88;100.00
6433;BME280;3249;42.690;23.260;2023-05-25T10:17:22;94465.13;;;18.34;100.00
6433;BME280;3249;42.690;23.260;2023-05-25T10:19:54;94462.06;;;18.47;100.00
6433;BME280;3249;42.690;23.260;2023-05-25T10:22:31;94465.63;;;18.11;100.00
6433;BME280;3249;42.690;23.260;2023-05-25T10:25:05;94457.81;;;18.21;100.00
6433;BME280;3249;42.690;23.260;2023-05-25T10:27:40;94454.44;;;18.25;100.00
6433;BME280;3249;42.690;23.260;2023-05-25T10:30:13;94461.47;;;18.25;100.00
6433;BME280;3249;42.690;23.260;2023-05-25T10:32:43;94450.75;;;18.06;100.00
6433;BME280;3249;42.690;23.260;2023-05-25T10:35:13;94452.13;;;18.64;100.00
6433;BME280;3249;42.690;23.260;2023-05-25T10:37:42;94438.28;;;19.03;100.00
6433;BME280;3249;42.690;23.260;2023-05-25T10:40:13;94429.16;;;19.06;100.00
6433;BME280;3249;42.690;23.260;2023-05-25T10:42:46;94424.97;;;19.05;100.00
6433;BME280;3249;42.690;23.260;2023-05-25T10:45:15;94431.22;;;19.34;100.00
6433;BME280;3249;42.690;23.260;2023-05-25T10:47:45;94436.56;;;19.67;100.00
6433;BME280;3249;42.690;23.260;2023-05-25T10:50:20;94428.41;;;19.79;100.00
6433;BME280;3249;42.690;23.260;2023-05-25T10:52:59;94421.88;;;19.81;100.00
6433;BME280;3249;42.690;23.260;2023-05-25T10:55:40;94424.31;;;19.63;100.00
6433;BME280;3249;42.690;23.260;2023-05-25T10:58:14;94418.09;;;19.54;100.00
6433;BME280;3249;42.690;23.260;2023-05-25T11:00:56;94394.09;;;19.42;100.00
6433;BME280;3249;42.690;23.260;2023-05-25T11:03:47;94409.13;;;19.65;100.00
6433;BME280;3249;42.690;23.260;2023-05-25T11:06:17;94399.91;;;19.87;100.00
6433;BME280;3249;42.690;23.260;2023-05-25T11:08:47;94394.59;;;19.97;100.00
6433;BME280;3249;42.690;23.260;2023-05-25T11:11:17;94399.53;;;20.04;100.00
6433;BME280;3249;42.690;23.260;2023-05-25T11:13:50;94401.06;;;20.15;100.00
6433;BME280;3249;42.690;23.260;2023-05-25T11:16:20;94402.25;;;19.84;100.00
6433;BME280;3249;42.690;23.260;2023-05-25T11:18:51;94377.72;;;19.16;100.00
6433;BME280;3249;42.690;23.260;2023-05-25T11:21:41;94385.88;;;18.85;100.00
6433;BME280;3249;42.690;23.260;2023-05-25T11:24:15;94397.91;;;18.36;100.00
6433;BME280;3249;42.690;23.260;2023-05-25T11:26:52;94392.16;;;18.49;100.00
6433;BME280;3249;42.690;23.260;2023-05-25T11:29:29;94401.53;;;18.85;100.00
6433;BME280;3249;42.690;23.260;2023-05-25T11:32:00;94404.16;;;18.90;100.00
6433;BME280;3249;42.690;23.260;2023-05-25T11:34:30;94408.28;;;18.96;100.00
6433;BME280;3249;42.690;23.260;2023-05-25T11:37:00;94409.78;;;19.32;100.00
6433;BME280;3249;42.690;23.260;2023-05-25T11:39:29;94397.47;;;19.52;100.00
6433;BME280;3249;42.690;23.260;2023-05-25T11:42:02;94406.41;;;19.85;100.00
6433;BME280;3249;42.690;23.260;2023-05-25T11:44:35;94392.13;;;18.89;100.00
6433;BME280;3249;42.690;23.260;2023-05-25T11:47:06;94396.88;;;18.67;100.00
6433;BME280;3249;42.690;23.260;2023-05-25T11:49:38;94387.47;;;18.56;100.00
6433;BME280;3249;42.690;23.260;2023-05-25T11:52:13;94399.75;;;18.60;100.00
6433;BME280;3249;42.690;23.260;2023-05-25T11:54:43;94409.38;;;18.70;100.00
6433;BME280;3249;42.690;23.260;2023-05-25T11:57:14;94412.53;;;18.47;100.00
6433;BME280;3249;42.690;23.260;2023-05-25T11:59:50;94406.25;;;18.78;100.00
6433;BME280;3249;42.690;23.260;2023-05-25T12:02:21;94405.19;;;18.79;100.00
6433;BME280;3249;42.690;23.260;2023-05-25T12:04:54;94402.09;;;18.52;100.00
6433;BME280;3249;42.690;23.260;2023-05-25T12:07:23;94389.81;;;18.57;100.00
6433;BME280;3249;42.690;23.260;2023-05-25T12:10:03;94358.53;;;18.47;100.00
6433;BME280;3249;42.690;23.260;2023-05-25T12:12:38;94387.19;;;18.67;100.00
6433;BME280;3249;42.690;23.260;2023-05-25T12:15:12;94383.78;;;18.87;100.00
6433;BME280;3249;42.690;23.260;2023-05-25T12:17:42;94388.69;;;19.13;100.00
6433;BME280;3249;42.690;23.260;2023-05-25T12:20:13;94385.31;;;19.03;100.00
6433;BME280;3249;42.690;23.260;2023-05-25T12:22:44;94377.75;;;18.91;100.00
6433;BME280;3249;42.690;23.260;2023-05-25T12:25:17;94365.50;;;19.02;100.00
6433;BME280;3249;42.690;23.260;2023-05-25T12:27:48;94360.75;;;19.19;100.00
6433;BME280;3249;42.690;23.260;2023-05-25T12:30:26;94346.03;;;19.48;100.00
6433;BME280;3249;42.690;23.260;2023-05-25T12:32:59;94358.41;;;19.07;100.00
6433;BME280;3249;42.690;23.260;2023-05-25T12:35:28;94357.13;;;19.10;99.49
6433;BME280;3249;42.690;23.260;2023-05-25T12:38:09;94358.16;;;19.14;98.46
6433;BME280;3249;42.690;23.260;2023-05-25T12:40:39;94355.53;;;19.24;97.85
6433;BME280;3249;42.690;23.260;2023-05-25T12:43:09;94358.78;;;19.59;95.88
6433;BME280;3249;42.690;23.260;2023-05-25T12:45:42;94358.44;;;19.71;97.13
6433;BME280;3249;42.690;23.260;2023-05-25T12:48:12;94353.72;;;19.78;93.64
6433;BME280;3249;42.690;23.260;2023-05-25T12:50:55;94324.13;;;19.39;90.16
6433;BME280;3249;42.690;23.260;2023-05-25T12:53:25;94343.06;;;19.64;88.71
6433;BME280;3249;42.690;23.260;2023-05-25T12:56:02;94331.22;;;19.77;86.98
6433;BME280;3249;42.690;23.260;2023-05-25T12:58:31;94329.47;;;20.06;89.31
6433;BME280;3249;42.690;23.260;2023-05-25T13:01:06;94331.00;;;20.12;86.61
6433;BME280;3249;42.690;23.260;2023-05-25T13:03:35;94324.97;;;20.50;79.06
6433;BME280;3249;42.690;23.260;2023-05-25T13:06:04;94335.63;;;20.82;73.25
6433;BME280;3249;42.690;23.260;2023-05-25T13:08:33;94325.78;;;20.74;77.17
6433;BME280;3249;42.690;23.260;2023-05-25T13:11:04;94317.41;;;21.00;70.58
6433;BME280;3249;42.690;23.260;2023-05-25T13:13:33;94322.56;;;21.29;71.15
6433;BME280;3249;42.690;23.260;2023-05-25T13:16:05;94318.47;;;21.41;64.73
6433;BME280;3249;42.690;23.260;2023-05-25T13:18:34;94314.75;;;21.66;64.95
6433;BME280;3249;42.690;23.260;2023-05-25T13:21:03;94316.91;;;21.82;65.72